createdAt,value
2023-05-25T00:02:58.157Z,6.20
2023-05-25T00:06:02.453Z,6.07
2023-05-25T00:09:06.320Z,6.07
2023-05-25T00:12:09.894Z,6.97
2023-05-25T00:15:13.710Z,5.80
2023-05-25T00:21:21.598Z,6.73
2023-05-25T00:24:24.695Z,6.40
2023-05-25T00:27:27.815Z,6.10
2023-05-25T00:30:31.242Z,6.57
2023-05-25T00:33:35.822Z,6.70
2023-05-25T00:36:39.047Z,6.47
2023-05-25T00:39:42.305Z,7.27
2023-05-25T00:42:45.734Z,6.77
2023-05-25T00:45:49.945Z,6.80
2023-05-25T00:48:57.174Z,5.93
2023-05-25T00:52:00.379Z,7.13
2023-05-25T00:55:05.241Z,7.10
2023-05-25T00:58:09.557Z,6.50
2023-05-25T01:01:15.235Z,6.13
2023-05-25T01:04:22.471Z,6.37
2023-05-25T01:07:27.794Z,6.30
2023-05-25T01:10:34.279Z,6.67
2023-05-25T01:13:39.230Z,6.30
2023-05-25T01:16:43.972Z,6.43
2023-05-25T01:20:08.204Z,6.53
2023-05-25T01:23:18.029Z,5.90
2023-05-25T01:26:25.041Z,7.20
2023-05-25T01:29:30.806Z,6.87
2023-05-25T01:32:35.374Z,7.00
2023-05-25T01:35:39.992Z,7.30
2023-05-25T01:38:44.768Z,6.50
2023-05-25T01:41:48.036Z,6.40
2023-05-25T01:44:51.846Z,6.13
2023-05-25T01:48:02.718Z,6.30
2023-05-25T01:51:16.262Z,7.20
2023-05-25T01:54:24.148Z,7.03
2023-05-25T01:57:30.111Z,7.40
2023-05-25T02:00:34.529Z,7.00
2023-05-25T02:03:38.930Z,6.17
2023-05-25T02:06:42.149Z,7.17
2023-05-25T02:09:46.889Z,6.83
2023-05-25T02:12:49.940Z,6.60
2023-05-25T02:15:54.192Z,7.63
2023-05-25T02:18:58.233Z,7.97
2023-05-25T02:22:01.581Z,7.63
2023-05-25T02:25:08.971Z,7.77
2023-05-25T02:28:12.169Z,7.87
2023-05-25T02:31:18.774Z,7.60
2023-05-25T02:34:24.668Z,7.47
2023-05-25T02:37:27.959Z,7.90
2023-05-25T02:40:33.264Z,7.80
2023-05-25T02:43:39.376Z,7.97
2023-05-25T02:46:42.635Z,7.10
2023-05-25T02:49:46.099Z,7.67
2023-05-25T02:52:49.266Z,7.40
2023-05-25T02:55:54.032Z,8.27
2023-05-25T02:58:57.388Z,8.20
2023-05-25T03:02:00.944Z,8.67
2023-05-25T03:05:04.750Z,9.47
2023-05-25T03:08:08.580Z,8.23
2023-05-25T03:11:13.345Z,8.00
2023-05-25T03:14:16.550Z,8.70
2023-05-25T03:17:19.693Z,9.20
2023-05-25T03:20:24.704Z,8.47
2023-05-25T03:23:28.149Z,8.67
2023-05-25T03:26:32.790Z,8.20
2023-05-25T03:29:36.132Z,8.23
2023-05-25T03:32:39.413Z,8.53
2023-05-25T03:35:42.930Z,8.23
2023-05-25T03:38:47.074Z,8.40
2023-05-25T03:41:51.803Z,8.27
2023-05-25T03:44:54.962Z,9.73
2023-05-25T03:47:58.275Z,10.13
2023-05-25T03:51:01.450Z,10.00
2023-05-25T03:54:04.800Z,9.93
2023-05-25T03:57:09.642Z,9.50
2023-05-25T04:00:14.081Z,9.07
2023-05-25T04:03:17.434Z,9.93
2023-05-25T04:06:25.641Z,8.67
2023-05-25T04:09:28.868Z,9.57
2023-05-25T04:12:33.349Z,9.70
2023-05-25T04:15:36.601Z,10.43
2023-05-25T04:18:39.739Z,9.30
2023-05-25T04:21:43.283Z,10.40
2023-05-25T04:24:46.394Z,10.00
2023-05-25T04:27:51.401Z,9.40
2023-05-25T04:30:57.064Z,9.77
2023-05-25T04:34:02.589Z,9.97
2023-05-25T04:37:08.996Z,10.90
2023-05-25T04:40:14.421Z,11.27
2023-05-25T04:43:20.488Z,11.03
2023-05-25T04:46:23.681Z,11.43
2023-05-25T04:49:27.535Z,11.17
2023-05-25T04:52:30.708Z,10.50
2023-05-25T04:55:33.823Z,10.00
2023-05-25T04:58:38.608Z,10.97
2023-05-25T05:01:41.957Z,9.70
2023-05-25T05:04:44.985Z,10.13
2023-05-25T05:07:48.200Z,10.20
2023-05-25T05:10:51.474Z,8.77
2023-05-25T05:13:56.159Z,10.23
2023-05-25T05:16:59.246Z,9.33
2023-05-25T05:20:02.444Z,9.20
2023-05-25T05:23:05.902Z,9.30
2023-05-25T05:26:11.315Z,9.90
2023-05-25T05:29:16.998Z,9.70
2023-05-25T05:32:20.272Z,8.70
2023-05-25T05:35:23.586Z,9.17
2023-05-25T05:38:26.756Z,9.23
2023-05-25T05:41:30.574Z,9.53
2023-05-25T05:44:35.028Z,9.50
2023-05-25T05:47:38.163Z,9.23
2023-05-25T05:50:42.379Z,10.57
2023-05-25T05:53:45.670Z,9.23
2023-05-25T05:56:48.850Z,9.60
2023-05-25T05:59:55.167Z,9.70
2023-05-25T06:02:58.324Z,9.60
2023-05-25T06:06:01.827Z,9.10
2023-05-25T06:09:06.831Z,8.73
2023-05-25T06:12:10.907Z,9.00
2023-05-25T06:15:15.690Z,9.87
2023-05-25T06:18:18.786Z,9.53
2023-05-25T06:21:21.824Z,8.93
2023-05-25T06:24:25.459Z,7.90
2023-05-25T06:27:28.584Z,8.37
2023-05-25T06:30:33.296Z,7.60
2023-05-25T06:33:36.331Z,9.67
2023-05-25T06:36:39.490Z,9.03
2023-05-25T06:39:43.444Z,8.17
2023-05-25T06:42:46.814Z,8.27
2023-05-25T06:45:51.364Z,8.70
2023-05-25T06:48:54.550Z,9.17
2023-05-25T06:51:57.602Z,9.60
2023-05-25T06:55:00.977Z,8.73
2023-05-25T06:58:04.366Z,9.43
2023-05-25T07:01:08.870Z,8.93
2023-05-25T07:04:11.931Z,7.63
2023-05-25T07:07:15.130Z,7.40
2023-05-25T07:10:19.075Z,8.27
2023-05-25T07:13:22.197Z,7.00
2023-05-25T07:16:26.672Z,7.17
2023-05-25T07:19:29.926Z,7.30
2023-05-25T07:22:33.067Z,5.97
2023-05-25T07:25:36.276Z,6.83
2023-05-25T07:28:39.536Z,5.87
2023-05-25T07:31:44.564Z,6.27
2023-05-25T07:34:47.909Z,6.00
2023-05-25T07:37:58.123Z,5.60
2023-05-25T07:41:01.369Z,5.07
2023-05-25T07:44:04.705Z,5.40
2023-05-25T07:47:09.275Z,5.30
2023-05-25T07:50:13.031Z,4.70
2023-05-25T07:53:16.175Z,5.20
2023-05-25T07:56:19.503Z,5.20
2023-05-25T07:59:22.570Z,5.77
2023-05-25T08:02:27.538Z,5.27
2023-05-25T08:05:30.872Z,5.23
2023-05-25T08:08:34.420Z,5.33
2023-05-25T08:11:37.674Z,5.83
2023-05-25T08:14:41.304Z,5.63
2023-05-25T08:17:45.958Z,5.70
2023-05-25T08:20:49.433Z,5.33
2023-05-25T08:23:53.928Z,4.93
2023-05-25T08:26:57.382Z,5.43
2023-05-25T08:30:03.417Z,5.63
2023-05-25T08:33:08.083Z,5.63
2023-05-25T08:36:11.883Z,5.60
2023-05-25T08:39:15.805Z,6.03
2023-05-25T08:42:19.164Z,5.77
2023-05-25T08:45:34.200Z,5.77
2023-05-25T08:48:42.755Z,5.37
2023-05-25T08:51:51.028Z,5.87
2023-05-25T08:54:59.616Z,6.37
2023-05-25T08:58:11.347Z,5.90
2023-05-25T09:01:19.604Z,6.00
2023-05-25T09:04:24.571Z,5.67
2023-05-25T09:07:28.596Z,5.33
2023-05-25T09:10:35.389Z,7.00
2023-05-25T09:13:38.814Z,6.50
2023-05-25T09:16:42.774Z,6.13
2023-05-25T09:19:47.941Z,5.97
2023-05-25T09:22:51.536Z,5.07
2023-05-25T09:25:55.968Z,4.47
2023-05-25T09:28:59.172Z,5.47
2023-05-25T09:32:02.478Z,5.80
2023-05-25T09:35:12.092Z,5.40
2023-05-25T09:38:18.714Z,5.13
2023-05-25T09:41:22.461Z,5.50
2023-05-25T09:44:25.577Z,5.27
2023-05-25T09:47:29.126Z,6.33
2023-05-25T09:50:33.703Z,5.43
2023-05-25T09:53:36.978Z,5.77
2023-05-25T09:56:40.111Z,6.73
2023-05-25T09:59:43.683Z,6.50
2023-05-25T10:02:46.749Z,5.77
2023-05-25T10:05:53.970Z,6.20
2023-05-25T10:08:59.009Z,6.67
2023-05-25T10:12:03.242Z,6.03
2023-05-25T10:15:08.783Z,5.57
2023-05-25T10:18:15.452Z,5.60
2023-05-25T10:21:21.912Z,5.70
2023-05-25T10:24:32.761Z,5.93
2023-05-25T10:27:40.525Z,5.47
2023-05-25T10:30:45.038Z,5.40
2023-05-25T10:33:52.049Z,6.27
2023-05-25T10:36:59.601Z,5.83
2023-05-25T10:40:03.773Z,5.23
2023-05-25T10:43:08.042Z,5.70
2023-05-25T10:46:12.602Z,6.30
2023-05-25T10:49:26.706Z,6.13
2023-05-25T10:52:32.180Z,5.87
2023-05-25T10:55:44.270Z,6.73
2023-05-25T10:58:49.752Z,5.70
2023-05-25T11:01:52.862Z,6.27
2023-05-25T11:05:29.664Z,5.73
2023-05-25T11:08:51.077Z,5.97
2023-05-25T11:12:05.164Z,5.90
2023-05-25T11:15:16.825Z,6.53
2023-05-25T11:18:20.050Z,6.60
2023-05-25T11:21:40.656Z,6.20
2023-05-25T11:24:46.152Z,6.27
2023-05-25T11:27:49.261Z,5.77
2023-05-25T11:30:52.485Z,5.83
2023-05-25T11:33:59.470Z,6.17
2023-05-25T11:37:03.842Z,6.33
2023-05-25T11:40:10.791Z,6.93
2023-05-25T11:43:16.335Z,6.10
2023-05-25T11:46:19.925Z,6.33
2023-05-25T11:49:23.299Z,6.33
2023-05-25T11:52:26.567Z,6.00
2023-05-25T11:55:31.202Z,5.83
2023-05-25T11:58:35.758Z,6.43
2023-05-25T12:01:39.132Z,6.03
2023-05-25T12:04:43.125Z,6.10
2023-05-25T12:07:47.410Z,5.83
2023-05-25T12:10:55.050Z,5.87
2023-05-25T12:13:58.475Z,5.70
2023-05-25T12:17:02.118Z,6.40
2023-05-25T12:20:07.786Z,5.70
2023-05-25T12:23:11.619Z,6.10
2023-05-25T12:26:19.110Z,6.13
2023-05-25T12:29:22.393Z,6.90
2023-05-25T12:32:25.659Z,6.90
2023-05-25T12:35:29.144Z,6.50
2023-05-25T12:38:32.439Z,6.00
2023-05-25T12:41:50.683Z,6.77
2023-05-25T12:45:01.162Z,6.50
2023-05-25T12:48:04.578Z,6.30
2023-05-25T12:51:09.892Z,5.97
2023-05-25T12:54:13.074Z,7.47
2023-05-25T12:57:18.867Z,6.80
2023-05-25T13:00:23.663Z,6.97
2023-05-25T13:03:27.120Z,6.67
2023-05-25T13:06:30.618Z,6.87
2023-05-25T13:09:33.938Z,6.77
2023-05-25T13:12:38.600Z,7.43
2023-05-25T13:15:41.595Z,6.83
2023-05-25T13:18:44.756Z,6.70
2023-05-25T13:21:49.279Z,5.67
2023-05-25T13:24:52.611Z,6.33
2023-05-25T13:27:59.892Z,6.87
2023-05-25T13:31:03.496Z,6.00
2023-05-25T13:34:06.613Z,6.83
2023-05-25T13:37:09.766Z,6.00
2023-05-25T13:40:13.653Z,5.57
2023-05-25T13:43:18.299Z,5.83
2023-05-25T13:46:33.722Z,6.07
2023-05-25T13:49:38.199Z,5.13
2023-05-25T13:52:41.511Z,5.87
2023-05-25T13:55:44.711Z,6.10
2023-05-25T13:58:49.517Z,5.87
2023-05-25T14:01:54.315Z,6.03
2023-05-25T14:04:59.193Z,6.20
2023-05-25T14:08:05.063Z,5.60
2023-05-25T14:11:08.225Z,5.83
2023-05-25T14:14:27.022Z,5.67
2023-05-25T14:17:33.709Z,5.90
2023-05-25T14:20:38.259Z,6.23
2023-05-25T14:23:41.686Z,5.63
2023-05-25T14:26:44.919Z,6.23
2023-05-25T14:29:50.927Z,5.67
2023-05-25T14:32:54.251Z,5.83
2023-05-25T14:35:57.689Z,5.93
2023-05-25T14:39:01.408Z,6.37
2023-05-25T14:42:07.397Z,6.50
2023-05-25T14:45:14.539Z,5.93
2023-05-25T14:48:23.203Z,6.07
2023-05-25T14:51:26.669Z,6.20
2023-05-25T14:54:29.820Z,6.00
2023-05-25T14:57:32.993Z,6.73
2023-05-25T15:00:37.423Z,6.50
2023-05-25T15:03:40.843Z,6.87
2023-05-25T15:06:44.061Z,6.93
2023-05-25T15:09:47.343Z,6.13
2023-05-25T15:12:50.834Z,6.30
2023-05-25T15:15:57.743Z,6.10
2023-05-25T15:19:00.956Z,6.27
2023-05-25T15:22:04.284Z,5.60
2023-05-25T15:25:07.660Z,5.73
2023-05-25T15:28:11.108Z,5.33
2023-05-25T15:31:16.610Z,5.03
2023-05-25T15:34:19.712Z,5.47
2023-05-25T15:37:22.758Z,6.47
2023-05-25T15:40:25.988Z,5.13
2023-05-25T15:43:28.983Z,6.27
2023-05-25T15:46:33.830Z,5.23
2023-05-25T15:49:37.482Z,5.70
2023-05-25T15:52:41.590Z,5.60
2023-05-25T15:55:44.974Z,5.70
2023-05-25T15:58:49.461Z,6.13
2023-05-25T16:01:54.580Z,5.90
2023-05-25T16:04:59.844Z,5.67
2023-05-25T16:08:03.254Z,5.20
2023-05-25T16:11:07.249Z,5.30
2023-05-25T16:14:10.812Z,6.17
2023-05-25T16:17:15.566Z,5.23
2023-05-25T16:20:19.113Z,5.27
2023-05-25T16:23:22.836Z,5.33
2023-05-25T16:26:27.079Z,5.63
2023-05-25T16:29:30.500Z,5.23
2023-05-25T16:32:35.740Z,5.63
2023-05-25T16:35:39.178Z,5.50
2023-05-25T16:38:44.202Z,5.10
2023-05-25T16:41:51.839Z,6.07
2023-05-25T16:44:55.065Z,5.50
2023-05-25T16:47:59.769Z,5.73
2023-05-25T16:51:02.853Z,5.77
2023-05-25T16:54:07.310Z,5.20
2023-05-25T16:57:12.063Z,5.47
2023-05-25T17:00:16.336Z,5.23
2023-05-25T17:03:21.143Z,5.20
2023-05-25T17:06:24.469Z,6.03
2023-05-25T17:09:27.675Z,5.47
2023-05-25T17:12:30.916Z,6.17
2023-05-25T17:15:34.163Z,5.77
2023-05-25T17:18:38.932Z,5.73
2023-05-25T17:21:42.566Z,6.50
2023-05-25T17:24:45.549Z,6.37
2023-05-25T17:27:48.651Z,5.57
2023-05-25T17:30:51.960Z,6.27
2023-05-25T17:33:56.907Z,6.33
2023-05-25T17:37:00.398Z,6.13
2023-05-25T17:40:04.862Z,5.90
2023-05-25T17:43:07.968Z,5.53
2023-05-25T17:46:11.072Z,6.37
2023-05-25T17:49:16.155Z,6.23
2023-05-25T17:52:19.170Z,6.10
2023-05-25T17:55:22.396Z,5.50
2023-05-25T17:58:25.866Z,5.63
2023-05-25T18:01:29.059Z,6.93
2023-05-25T18:04:33.443Z,5.63
2023-05-25T18:07:37.800Z,6.10
2023-05-25T18:10:41.049Z,5.60
2023-05-25T18:13:44.331Z,6.20
2023-05-25T18:16:47.539Z,6.03
2023-05-25T18:19:52.010Z,5.90
2023-05-25T18:22:55.257Z,5.60
2023-05-25T18:25:58.241Z,6.10
2023-05-25T18:29:01.343Z,5.93
2023-05-25T18:32:04.627Z,5.33
2023-05-25T18:35:10.305Z,5.83
2023-05-25T18:38:13.388Z,5.30
2023-05-25T18:41:16.892Z,5.80
2023-05-25T18:44:20.540Z,5.50
2023-05-25T18:47:23.676Z,5.67
2023-05-25T18:50:28.228Z,5.67
2023-05-25T18:53:31.289Z,5.87
2023-05-25T18:56:34.338Z,6.13
2023-05-25T18:59:37.393Z,5.40
2023-05-25T19:02:40.920Z,4.73
2023-05-25T19:05:45.906Z,5.40
2023-05-25T19:08:49.911Z,6.00
2023-05-25T19:11:52.887Z,5.77
2023-05-25T19:14:57.973Z,5.50
2023-05-25T19:18:04.624Z,5.23
2023-05-25T19:21:09.498Z,5.17
2023-05-25T19:24:12.500Z,5.63
2023-05-25T19:27:16.128Z,5.67
2023-05-25T19:30:19.466Z,5.37
2023-05-25T19:33:22.540Z,5.50
2023-05-25T19:36:27.540Z,5.17
2023-05-25T19:39:31.645Z,5.80
2023-05-25T19:42:34.815Z,5.50
2023-05-25T19:45:38.006Z,5.90
2023-05-25T19:48:41.555Z,6.17
2023-05-25T19:51:46.332Z,5.47
2023-05-25T19:54:50.790Z,5.33
2023-05-25T19:57:54.963Z,5.60
2023-05-25T20:00:58.308Z,5.73
2023-05-25T20:04:01.990Z,6.17
2023-05-25T20:07:06.879Z,6.00
2023-05-25T20:10:10.197Z,5.57
2023-05-25T20:13:13.372Z,6.67
2023-05-25T20:16:16.932Z,6.67
2023-05-25T20:19:23.882Z,5.67
2023-05-25T20:22:28.506Z,5.80
2023-05-25T20:25:31.687Z,5.87
2023-05-25T20:28:34.835Z,5.67
2023-05-25T20:31:37.985Z,5.70
2023-05-25T20:34:41.145Z,5.53
2023-05-25T20:37:46.304Z,6.17
2023-05-25T20:40:50.668Z,6.23
2023-05-25T20:43:53.746Z,6.63
2023-05-25T20:46:57.192Z,6.00
2023-05-25T20:50:01.536Z,6.13
2023-05-25T20:53:06.169Z,6.20
2023-05-25T20:56:09.249Z,6.93
2023-05-25T20:59:12.495Z,5.30
2023-05-25T21:02:15.857Z,6.43
2023-05-25T21:05:18.922Z,5.30
2023-05-25T21:08:24.375Z,5.70
2023-05-25T21:11:27.450Z,6.07
2023-05-25T21:14:30.855Z,6.00
2023-05-25T21:17:34.016Z,6.70
2023-05-25T21:20:37.378Z,6.93
2023-05-25T21:23:42.119Z,6.43
2023-05-25T21:26:45.164Z,6.70
2023-05-25T21:29:48.353Z,5.33
2023-05-25T21:32:51.710Z,6.33
2023-05-25T21:35:54.913Z,6.20
2023-05-25T21:38:59.504Z,6.17
2023-05-25T21:42:03.415Z,6.40
2023-05-25T21:45:07.609Z,5.97
2023-05-25T21:48:10.686Z,6.23
2023-05-25T21:51:13.834Z,6.43
2023-05-25T21:54:19.017Z,6.03
2023-05-25T21:57:22.272Z,6.17
2023-05-25T22:00:25.551Z,6.70
2023-05-25T22:03:29.244Z,7.40
2023-05-25T22:06:32.782Z,6.90
2023-05-25T22:09:37.482Z,6.30
2023-05-25T22:12:40.555Z,6.90
2023-05-25T22:15:44.813Z,5.77
2023-05-25T22:18:47.989Z,6.03
2023-05-25T22:21:53.425Z,5.80
2023-05-25T22:24:57.926Z,5.27
2023-05-25T22:28:01.028Z,5.97
2023-05-25T22:31:04.179Z,6.10
2023-05-25T22:34:07.349Z,6.10
2023-05-25T22:37:11.497Z,5.43
2023-05-25T22:40:16.239Z,6.43
2023-05-25T22:43:19.259Z,6.20
2023-05-25T22:46:23.336Z,5.90
2023-05-25T22:49:26.486Z,6.00
2023-05-25T22:52:29.515Z,6.60
2023-05-25T22:55:34.488Z,6.53
2023-05-25T22:58:37.480Z,5.83
2023-05-25T23:01:40.972Z,6.50
2023-05-25T23:04:44.276Z,6.00
2023-05-25T23:07:47.494Z,6.40
2023-05-25T23:10:52.332Z,7.10
2023-05-25T23:13:55.670Z,5.97
2023-05-25T23:16:58.997Z,6.60
2023-05-25T23:20:02.911Z,6.47
2023-05-25T23:23:05.974Z,6.87
2023-05-25T23:26:10.616Z,6.43
2023-05-25T23:29:13.810Z,5.43
2023-05-25T23:32:18.639Z,6.63
2023-05-25T23:35:22.418Z,6.13
2023-05-25T23:38:25.577Z,6.40
2023-05-25T23:41:32.681Z,6.53
2023-05-25T23:44:35.713Z,6.67
2023-05-25T23:47:39.074Z,6.50
2023-05-25T23:50:42.499Z,7.03
2023-05-25T23:53:45.672Z,7.00
2023-05-25T23:56:50.150Z,6.93
2023-05-25T23:59:53.451Z,6.57
